Edgewood, New York
Current Conditions -  °F | °C
As of 2:04 AM on Saturday 20 Dec 2014 (Local Time) from KISP Reporting Station
Overcast Overcast  
Wind Chill: -5°   Ceiling: 2900
Heat Index: -1°   Visibility: 10mi
Dew Point: -6°   Wind: 8mph
Humidity: 69%   Direction: 350°N
Pressure: 30.17"   Gusts: NA
Location:  40.7837°N, 73.252°W
Report Text: KISP 200704Z AUTO 35007KT 10SM OVC029 M01/M06 A3017 RMK AO2 T10061056
Loading
Personal Weather Stations






























Interactive Weather Map New forecast layout! Learn more

10-Day Weather Forecast

Advertisements
Track Severe Weather on mobile